sensor_id;sensor_type;location;lat;lon;timestamp;temperature;humidity
22145;DHT22;11238;48.730;11.566;2022-09-03T00:00:18;13.70;96.70
22145;DHT22;11238;48.730;11.566;2022-09-03T00:03:10;13.70;96.10
22145;DHT22;11238;48.730;11.566;2022-09-03T00:05:42;13.70;96.00
22145;DHT22;11238;48.730;11.566;2022-09-03T00:08:15;13.70;96.80
22145;DHT22;11238;48.730;11.566;2022-09-03T00:13:19;13.60;96.90
22145;DHT22;11238;48.730;11.566;2022-09-03T00:15:47;13.50;97.30
22145;DHT22;11238;48.730;11.566;2022-09-03T00:18:20;13.40;97.70
22145;DHT22;11238;48.730;11.566;2022-09-03T00:20:54;13.40;98.00
22145;DHT22;11238;48.730;11.566;2022-09-03T00:23:27;13.30;97.20
22145;DHT22;11238;48.730;11.566;2022-09-03T00:26:17;13.40;98.00
22145;DHT22;11238;48.730;11.566;2022-09-03T00:33:54;13.50;99.10
22145;DHT22;11238;48.730;11.566;2022-09-03T00:36:32;13.50;99.40
22145;DHT22;11238;48.730;11.566;2022-09-03T00:38:59;13.60;99.20
22145;DHT22;11238;48.730;11.566;2022-09-03T00:41:39;13.50;98.90
22145;DHT22;11238;48.730;11.566;2022-09-03T00:47:01;13.60;99.80
22145;DHT22;11238;48.730;11.566;2022-09-03T00:49:45;13.60;99.90
22145;DHT22;11238;48.730;11.566;2022-09-03T00:52:40;13.50;99.90
22145;DHT22;11238;48.730;11.566;2022-09-03T00:57:48;13.50;99.90
22145;DHT22;11238;48.730;11.566;2022-09-03T01:00:19;13.50;99.90
22145;DHT22;11238;48.730;11.566;2022-09-03T01:03:07;13.50;99.90
22145;DHT22;11238;48.730;11.566;2022-09-03T01:05:45;13.60;99.90
22145;DHT22;11238;48.730;11.566;2022-09-03T01:13:51;13.60;99.90
22145;DHT22;11238;48.730;11.566;2022-09-03T01:32:10;13.70;99.90
22145;DHT22;11238;48.730;11.566;2022-09-03T01:37:44;13.70;99.90
22145;DHT22;11238;48.730;11.566;2022-09-03T01:46:01;13.60;99.90
22145;DHT22;11238;48.730;11.566;2022-09-03T01:51:20;13.60;99.90
22145;DHT22;11238;48.730;11.566;2022-09-03T01:59:16;13.50;99.90
22145;DHT22;11238;48.730;11.566;2022-09-03T02:01:55;13.50;99.90
22145;DHT22;11238;48.730;11.566;2022-09-03T02:04:25;13.50;99.90
22145;DHT22;11238;48.730;11.566;2022-09-03T02:06:52;13.50;99.90
22145;DHT22;11238;48.730;11.566;2022-09-03T02:09:19;13.50;99.90
22145;DHT22;11238;48.730;11.566;2022-09-03T02:11:51;13.40;99.90
22145;DHT22;11238;48.730;11.566;2022-09-03T02:14:18;13.40;99.90
22145;DHT22;11238;48.730;11.566;2022-09-03T02:16:44;13.40;99.90
22145;DHT22;11238;48.730;11.566;2022-09-03T02:19:13;13.40;99.90
22145;DHT22;11238;48.730;11.566;2022-09-03T02:21:48;13.40;99.90
22145;DHT22;11238;48.730;11.566;2022-09-03T02:24:16;13.40;99.90
22145;DHT22;11238;48.730;11.566;2022-09-03T02:26:42;13.30;99.90
22145;DHT22;11238;48.730;11.566;2022-09-03T02:29:08;13.40;99.90
22145;DHT22;11238;48.730;11.566;2022-09-03T02:31:35;13.30;99.90
22145;DHT22;11238;48.730;11.566;2022-09-03T02:34:01;13.30;99.90
22145;DHT22;11238;48.730;11.566;2022-09-03T02:36:33;13.40;99.90
22145;DHT22;11238;48.730;11.566;2022-09-03T02:39:00;13.30;99.90
22145;DHT22;11238;48.730;11.566;2022-09-03T02:41:25;13.30;99.90
22145;DHT22;11238;48.730;11.566;2022-09-03T02:46:43;13.40;99.90
22145;DHT22;11238;48.730;11.566;2022-09-03T02:49:10;13.40;99.90
22145;DHT22;11238;48.730;11.566;2022-09-03T02:51:38;13.40;99.90
22145;DHT22;11238;48.730;11.566;2022-09-03T02:54:04;13.40;99.90
22145;DHT22;11238;48.730;11.566;2022-09-03T02:56:31;13.40;99.90
22145;DHT22;11238;48.730;11.566;2022-09-03T02:58:57;13.40;99.90
22145;DHT22;11238;48.730;11.566;2022-09-03T03:01:23;13.40;99.90
22145;DHT22;11238;48.730;11.566;2022-09-03T03:03:49;13.40;99.90
22145;DHT22;11238;48.730;11.566;2022-09-03T03:06:15;13.40;99.90
22145;DHT22;11238;48.730;11.566;2022-09-03T03:08:41;13.40;99.90
22145;DHT22;11238;48.730;11.566;2022-09-03T03:11:08;13.40;99.90
22145;DHT22;11238;48.730;11.566;2022-09-03T03:13:34;13.40;99.90
22145;DHT22;11238;48.730;11.566;2022-09-03T03:16:03;13.40;99.90
22145;DHT22;11238;48.730;11.566;2022-09-03T03:18:30;13.30;99.90
22145;DHT22;11238;48.730;11.566;2022-09-03T03:20:57;13.30;99.90
22145;DHT22;11238;48.730;11.566;2022-09-03T03:23:27;13.30;99.90
22145;DHT22;11238;48.730;11.566;2022-09-03T03:26:03;13.20;99.90
22145;DHT22;11238;48.730;11.566;2022-09-03T03:28:30;13.20;99.90
22145;DHT22;11238;48.730;11.566;2022-09-03T03:31:06;13.20;99.90
22145;DHT22;11238;48.730;11.566;2022-09-03T03:33:33;13.20;99.90
22145;DHT22;11238;48.730;11.566;2022-09-03T03:36:04;13.20;99.90
22145;DHT22;11238;48.730;11.566;2022-09-03T03:38:30;13.20;99.90
22145;DHT22;11238;48.730;11.566;2022-09-03T03:40:56;13.10;99.90
22145;DHT22;11238;48.730;11.566;2022-09-03T03:43:22;13.10;99.90
22145;DHT22;11238;48.730;11.566;2022-09-03T03:45:59;13.00;99.90
22145;DHT22;11238;48.730;11.566;2022-09-03T03:48:25;13.00;99.90
22145;DHT22;11238;48.730;11.566;2022-09-03T03:50:52;13.00;99.90
22145;DHT22;11238;48.730;11.566;2022-09-03T03:53:18;12.90;99.90
22145;DHT22;11238;48.730;11.566;2022-09-03T03:55:54;12.90;99.90
22145;DHT22;11238;48.730;11.566;2022-09-03T03:58:21;12.90;99.90
22145;DHT22;11238;48.730;11.566;2022-09-03T04:00:47;12.90;99.90
22145;DHT22;11238;48.730;11.566;2022-09-03T04:03:14;12.90;99.90
22145;DHT22;11238;48.730;11.566;2022-09-03T04:05:40;12.80;99.90
22145;DHT22;11238;48.730;11.566;2022-09-03T04:08:05;12.90;99.90
22145;DHT22;11238;48.730;11.566;2022-09-03T04:10:31;12.90;99.90
22145;DHT22;11238;48.730;11.566;2022-09-03T04:12:57;12.90;99.90
22145;DHT22;11238;48.730;11.566;2022-09-03T04:15:26;12.90;99.90
22145;DHT22;11238;48.730;11.566;2022-09-03T04:17:53;12.90;99.90
22145;DHT22;11238;48.730;11.566;2022-09-03T04:20:19;12.80;99.90
22145;DHT22;11238;48.730;11.566;2022-09-03T04:22:45;12.80;99.90
22145;DHT22;11238;48.730;11.566;2022-09-03T04:25:11;12.70;99.90
22145;DHT22;11238;48.730;11.566;2022-09-03T04:27:36;12.80;99.90
22145;DHT22;11238;48.730;11.566;2022-09-03T04:30:03;12.80;99.90
22145;DHT22;11238;48.730;11.566;2022-09-03T04:32:29;12.80;99.90
22145;DHT22;11238;48.730;11.566;2022-09-03T04:35:14;12.70;99.90
22145;DHT22;11238;48.730;11.566;2022-09-03T04:37:40;12.70;99.90
22145;DHT22;11238;48.730;11.566;2022-09-03T04:40:07;12.70;99.90
22145;DHT22;11238;48.730;11.566;2022-09-03T04:42:33;12.70;99.90
22145;DHT22;11238;48.730;11.566;2022-09-03T04:44:58;12.70;99.90
22145;DHT22;11238;48.730;11.566;2022-09-03T04:47:24;12.70;99.90
22145;DHT22;11238;48.730;11.566;2022-09-03T04:49:50;12.70;99.90
22145;DHT22;11238;48.730;11.566;2022-09-03T04:52:16;12.70;99.90
22145;DHT22;11238;48.730;11.566;2022-09-03T04:54:41;12.70;99.90
22145;DHT22;11238;48.730;11.566;2022-09-03T04:57:07;12.70;99.90
22145;DHT22;11238;48.730;11.566;2022-09-03T04:59:33;12.70;99.90
22145;DHT22;11238;48.730;11.566;2022-09-03T05:01:58;12.70;99.90
22145;DHT22;11238;48.730;11.566;2022-09-03T05:04:25;12.70;99.90
22145;DHT22;11238;48.730;11.566;2022-09-03T05:06:51;12.70;99.90
22145;DHT22;11238;48.730;11.566;2022-09-03T05:09:16;12.80;99.90
22145;DHT22;11238;48.730;11.566;2022-09-03T05:11:42;12.80;99.90
22145;DHT22;11238;48.730;11.566;2022-09-03T05:14:09;12.80;99.90
22145;DHT22;11238;48.730;11.566;2022-09-03T05:16:37;12.80;99.90
22145;DHT22;11238;48.730;11.566;2022-09-03T05:19:03;12.70;99.90
22145;DHT22;11238;48.730;11.566;2022-09-03T05:21:31;12.80;99.90
22145;DHT22;11238;48.730;11.566;2022-09-03T05:23:58;12.90;99.90
22145;DHT22;11238;48.730;11.566;2022-09-03T05:26:27;12.90;99.90
22145;DHT22;11238;48.730;11.566;2022-09-03T05:28:58;13.10;99.90
22145;DHT22;11238;48.730;11.566;2022-09-03T05:31:26;13.20;99.90
22145;DHT22;11238;48.730;11.566;2022-09-03T05:33:55;13.30;99.90
22145;DHT22;11238;48.730;11.566;2022-09-03T05:36:25;13.40;99.90
22145;DHT22;11238;48.730;11.566;2022-09-03T05:38:51;13.40;99.90
22145;DHT22;11238;48.730;11.566;2022-09-03T05:41:21;13.40;99.90
22145;DHT22;11238;48.730;11.566;2022-09-03T05:43:52;13.40;99.90
22145;DHT22;11238;48.730;11.566;2022-09-03T05:46:26;13.50;99.90
22145;DHT22;11238;48.730;11.566;2022-09-03T05:49:00;13.50;99.90
22145;DHT22;11238;48.730;11.566;2022-09-03T05:51:27;13.40;99.90
22145;DHT22;11238;48.730;11.566;2022-09-03T05:53:53;13.40;99.90
22145;DHT22;11238;48.730;11.566;2022-09-03T05:56:22;13.30;99.90
22145;DHT22;11238;48.730;11.566;2022-09-03T05:58:51;13.40;99.90
22145;DHT22;11238;48.730;11.566;2022-09-03T06:01:20;13.40;99.90
22145;DHT22;11238;48.730;11.566;2022-09-03T06:04:07;13.40;99.90
22145;DHT22;11238;48.730;11.566;2022-09-03T06:06:36;13.30;99.90
22145;DHT22;11238;48.730;11.566;2022-09-03T06:09:05;13.30;99.90
22145;DHT22;11238;48.730;11.566;2022-09-03T06:11:32;13.40;99.90
22145;DHT22;11238;48.730;11.566;2022-09-03T06:14:01;13.40;99.90
22145;DHT22;11238;48.730;11.566;2022-09-03T06:16:28;13.40;99.90
22145;DHT22;11238;48.730;11.566;2022-09-03T06:18:54;13.40;99.90
22145;DHT22;11238;48.730;11.566;2022-09-03T06:21:21;13.40;99.90
22145;DHT22;11238;48.730;11.566;2022-09-03T06:23:52;13.40;99.90
22145;DHT22;11238;48.730;11.566;2022-09-03T06:26:18;13.40;99.90
22145;DHT22;11238;48.730;11.566;2022-09-03T06:28:45;13.40;99.90
22145;DHT22;11238;48.730;11.566;2022-09-03T06:31:17;13.50;99.90
22145;DHT22;11238;48.730;11.566;2022-09-03T06:33:45;13.50;99.90
22145;DHT22;11238;48.730;11.566;2022-09-03T06:36:14;13.50;99.90
22145;DHT22;11238;48.730;11.566;2022-09-03T06:38:41;13.50;99.90
22145;DHT22;11238;48.730;11.566;2022-09-03T06:41:10;13.60;99.90
22145;DHT22;11238;48.730;11.566;2022-09-03T06:43:38;13.60;99.90
22145;DHT22;11238;48.730;11.566;2022-09-03T06:46:11;13.70;99.90
22145;DHT22;11238;48.730;11.566;2022-09-03T06:48:38;13.70;99.90
22145;DHT22;11238;48.730;11.566;2022-09-03T06:51:13;13.80;99.90
22145;DHT22;11238;48.730;11.566;2022-09-03T06:53:42;13.90;99.90
22145;DHT22;11238;48.730;11.566;2022-09-03T06:56:14;14.00;99.90
22145;DHT22;11238;48.730;11.566;2022-09-03T06:58:42;14.00;99.90
22145;DHT22;11238;48.730;11.566;2022-09-03T07:01:17;14.00;99.90
22145;DHT22;11238;48.730;11.566;2022-09-03T07:03:45;14.10;99.90
22145;DHT22;11238;48.730;11.566;2022-09-03T07:06:11;14.10;99.90
22145;DHT22;11238;48.730;11.566;2022-09-03T07:08:37;14.10;99.90
22145;DHT22;11238;48.730;11.566;2022-09-03T07:11:06;14.20;99.90
22145;DHT22;11238;48.730;11.566;2022-09-03T07:13:36;14.20;99.90
22145;DHT22;11238;48.730;11.566;2022-09-03T07:16:09;14.30;99.90
22145;DHT22;11238;48.730;11.566;2022-09-03T07:18:36;14.40;99.90
22145;DHT22;11238;48.730;11.566;2022-09-03T07:21:05;14.50;99.90
22145;DHT22;11238;48.730;11.566;2022-09-03T07:23:32;14.40;99.90
22145;DHT22;11238;48.730;11.566;2022-09-03T07:26:01;14.50;99.90
22145;DHT22;11238;48.730;11.566;2022-09-03T07:28:29;14.60;99.90
22145;DHT22;11238;48.730;11.566;2022-09-03T07:33:31;14.60;99.90
22145;DHT22;11238;48.730;11.566;2022-09-03T07:36:09;14.60;99.90
22145;DHT22;11238;48.730;11.566;2022-09-03T07:38:36;14.70;99.90
22145;DHT22;11238;48.730;11.566;2022-09-03T07:41:04;14.80;99.90
22145;DHT22;11238;48.730;11.566;2022-09-03T07:43:37;14.80;99.90
22145;DHT22;11238;48.730;11.566;2022-09-03T07:46:12;14.80;99.90
22145;DHT22;11238;48.730;11.566;2022-09-03T07:48:40;14.90;99.90
22145;DHT22;11238;48.730;11.566;2022-09-03T07:51:06;14.90;99.90
22145;DHT22;11238;48.730;11.566;2022-09-03T07:53:32;14.80;99.90
22145;DHT22;11238;48.730;11.566;2022-09-03T07:56:07;14.80;99.90
22145;DHT22;11238;48.730;11.566;2022-09-03T07:58:34;14.80;99.90
22145;DHT22;11238;48.730;11.566;2022-09-03T08:01:05;14.80;99.90
22145;DHT22;11238;48.730;11.566;2022-09-03T08:03:33;14.80;99.90
22145;DHT22;11238;48.730;11.566;2022-09-03T08:06:05;14.80;99.90
22145;DHT22;11238;48.730;11.566;2022-09-03T08:08:32;14.80;99.90
22145;DHT22;11238;48.730;11.566;2022-09-03T08:13:43;14.90;99.90
22145;DHT22;11238;48.730;11.566;2022-09-03T08:16:11;14.90;99.90
22145;DHT22;11238;48.730;11.566;2022-09-03T08:18:38;14.90;99.90
22145;DHT22;11238;48.730;11.566;2022-09-03T08:21:09;15.00;99.90
22145;DHT22;11238;48.730;11.566;2022-09-03T08:23:44;15.00;99.90
22145;DHT22;11238;48.730;11.566;2022-09-03T08:26:11;15.00;99.90
22145;DHT22;11238;48.730;11.566;2022-09-03T08:28:37;15.00;99.90
22145;DHT22;11238;48.730;11.566;2022-09-03T08:31:18;15.10;99.90
22145;DHT22;11238;48.730;11.566;2022-09-03T08:33:50;15.20;99.90
22145;DHT22;11238;48.730;11.566;2022-09-03T08:36:22;15.30;99.90
22145;DHT22;11238;48.730;11.566;2022-09-03T08:38:49;15.30;99.90
22145;DHT22;11238;48.730;11.566;2022-09-03T08:44:21;15.60;99.90
22145;DHT22;11238;48.730;11.566;2022-09-03T08:49:30;16.00;99.90
22145;DHT22;11238;48.730;11.566;2022-09-03T08:52:01;16.20;99.90
22145;DHT22;11238;48.730;11.566;2022-09-03T08:54:29;16.40;99.90
22145;DHT22;11238;48.730;11.566;2022-09-03T08:56:59;16.60;99.90
22145;DHT22;11238;48.730;11.566;2022-09-03T08:59:26;16.70;99.90
22145;DHT22;11238;48.730;11.566;2022-09-03T09:01:58;16.80;99.90
22145;DHT22;11238;48.730;11.566;2022-09-03T09:13:20;17.20;99.90
22145;DHT22;11238;48.730;11.566;2022-09-03T09:16:05;17.20;99.90
22145;DHT22;11238;48.730;11.566;2022-09-03T09:19:09;17.30;99.90
22145;DHT22;11238;48.730;11.566;2022-09-03T09:21:48;17.30;99.90
22145;DHT22;11238;48.730;11.566;2022-09-03T09:24:23;17.40;99.90
22145;DHT22;11238;48.730;11.566;2022-09-03T09:27:03;17.50;99.90
22145;DHT22;11238;48.730;11.566;2022-09-03T09:29:35;17.60;99.90
22145;DHT22;11238;48.730;11.566;2022-09-03T09:32:02;17.60;99.90
22145;DHT22;11238;48.730;11.566;2022-09-03T09:34:37;17.80;99.90
22145;DHT22;11238;48.730;11.566;2022-09-03T09:37:07;17.80;99.90
22145;DHT22;11238;48.730;11.566;2022-09-03T09:39:37;17.90;99.90
22145;DHT22;11238;48.730;11.566;2022-09-03T09:42:11;18.00;99.90
22145;DHT22;11238;48.730;11.566;2022-09-03T09:44:41;18.10;99.90
22145;DHT22;11238;48.730;11.566;2022-09-03T09:47:20;18.40;99.90
22145;DHT22;11238;48.730;11.566;2022-09-03T09:49:58;18.30;99.90
22145;DHT22;11238;48.730;11.566;2022-09-03T09:52:26;18.50;99.90
22145;DHT22;11238;48.730;11.566;2022-09-03T09:55:06;18.60;99.90
22145;DHT22;11238;48.730;11.566;2022-09-03T09:57:33;18.70;99.90
22145;DHT22;11238;48.730;11.566;2022-09-03T10:00:07;19.00;99.90
22145;DHT22;11238;48.730;11.566;2022-09-03T10:02:50;19.30;99.90
22145;DHT22;11238;48.730;11.566;2022-09-03T10:05:28;19.40;99.90
22145;DHT22;11238;48.730;11.566;2022-09-03T10:08:17;19.50;99.90
22145;DHT22;11238;48.730;11.566;2022-09-03T10:10:47;19.70;99.90
22145;DHT22;11238;48.730;11.566;2022-09-03T10:13:41;19.80;99.90
22145;DHT22;11238;48.730;11.566;2022-09-03T10:16:25;19.80;99.90
22145;DHT22;11238;48.730;11.566;2022-09-03T10:19:08;19.70;99.90
22145;DHT22;11238;48.730;11.566;2022-09-03T10:21:48;19.70;99.90
22145;DHT22;11238;48.730;11.566;2022-09-03T10:24:25;19.50;99.90
22145;DHT22;11238;48.730;11.566;2022-09-03T10:26:54;19.50;99.90
22145;DHT22;11238;48.730;11.566;2022-09-03T10:29:22;19.60;99.90
22145;DHT22;11238;48.730;11.566;2022-09-03T10:35:16;19.80;99.90
22145;DHT22;11238;48.730;11.566;2022-09-03T10:37:49;19.60;99.90
22145;DHT22;11238;48.730;11.566;2022-09-03T10:43:19;19.70;99.90
22145;DHT22;11238;48.730;11.566;2022-09-03T10:49:21;20.00;99.90
22145;DHT22;11238;48.730;11.566;2022-09-03T10:55:13;20.20;99.90
22145;DHT22;11238;48.730;11.566;2022-09-03T10:58:10;20.20;99.90
22145;DHT22;11238;48.730;11.566;2022-09-03T11:00:49;20.20;99.90
22145;DHT22;11238;48.730;11.566;2022-09-03T11:03:38;20.40;99.90
22145;DHT22;11238;48.730;11.566;2022-09-03T11:06:27;20.20;99.90
22145;DHT22;11238;48.730;11.566;2022-09-03T11:08:57;20.20;99.90
22145;DHT22;11238;48.730;11.566;2022-09-03T11:11:31;20.30;99.90
22145;DHT22;11238;48.730;11.566;2022-09-03T11:14:13;20.40;99.90
22145;DHT22;11238;48.730;11.566;2022-09-03T11:16:50;20.40;99.90
22145;DHT22;11238;48.730;11.566;2022-09-03T11:19:21;20.60;99.90
22145;DHT22;11238;48.730;11.566;2022-09-03T11:21:50;20.60;99.90
22145;DHT22;11238;48.730;11.566;2022-09-03T11:24:21;20.60;99.90
22145;DHT22;11238;48.730;11.566;2022-09-03T11:26:56;20.40;99.90
22145;DHT22;11238;48.730;11.566;2022-09-03T11:29:43;20.50;99.90
22145;DHT22;11238;48.730;11.566;2022-09-03T11:32:24;20.40;99.90
22145;DHT22;11238;48.730;11.566;2022-09-03T11:34:53;20.50;99.90
22145;DHT22;11238;48.730;11.566;2022-09-03T11:37:24;20.30;99.90
22145;DHT22;11238;48.730;11.566;2022-09-03T11:40:14;20.30;99.90
22145;DHT22;11238;48.730;11.566;2022-09-03T11:42:46;20.40;99.90
22145;DHT22;11238;48.730;11.566;2022-09-03T11:45:22;20.30;99.90
22145;DHT22;11238;48.730;11.566;2022-09-03T11:47:49;20.30;99.90
22145;DHT22;11238;48.730;11.566;2022-09-03T11:50:25;20.50;99.90
22145;DHT22;11238;48.730;11.566;2022-09-03T11:53:05;20.60;99.90
22145;DHT22;11238;48.730;11.566;2022-09-03T11:55:43;20.60;99.90
22145;DHT22;11238;48.730;11.566;2022-09-03T11:58:35;20.70;99.90
22145;DHT22;11238;48.730;11.566;2022-09-03T12:01:06;20.70;99.90
22145;DHT22;11238;48.730;11.566;2022-09-03T12:03:45;20.80;99.90
22145;DHT22;11238;48.730;11.566;2022-09-03T12:09:01;20.60;99.90
22145;DHT22;11238;48.730;11.566;2022-09-03T12:11:55;20.40;99.90
22145;DHT22;11238;48.730;11.566;2022-09-03T12:17:11;20.60;99.90
22145;DHT22;11238;48.730;11.566;2022-09-03T12:19:53;20.60;99.90
22145;DHT22;11238;48.730;11.566;2022-09-03T12:22:21;20.60;99.90
22145;DHT22;11238;48.730;11.566;2022-09-03T12:24:47;20.60;99.90
22145;DHT22;11238;48.730;11.566;2022-09-03T12:27:23;20.60;99.90
22145;DHT22;11238;48.730;11.566;2022-09-03T12:29:57;20.70;99.90
22145;DHT22;11238;48.730;11.566;2022-09-03T12:32:32;20.80;99.90
22145;DHT22;11238;48.730;11.566;2022-09-03T12:35:17;20.70;99.90
22145;DHT22;11238;48.730;11.566;2022-09-03T12:37:44;20.70;99.90
22145;DHT22;11238;48.730;11.566;2022-09-03T12:40:25;20.70;99.90
22145;DHT22;11238;48.730;11.566;2022-09-03T12:42:52;20.60;99.90
22145;DHT22;11238;48.730;11.566;2022-09-03T12:45:21;20.70;99.90
22145;DHT22;11238;48.730;11.566;2022-09-03T12:47:48;20.80;99.90
22145;DHT22;11238;48.730;11.566;2022-09-03T12:52:45;20.90;99.90
22145;DHT22;11238;48.730;11.566;2022-09-03T12:57:53;21.10;99.90
22145;DHT22;11238;48.730;11.566;2022-09-03T13:00:21;21.00;99.80
22145;DHT22;11238;48.730;11.566;2022-09-03T13:03:07;21.20;99.90
22145;DHT22;11238;48.730;11.566;2022-09-03T13:05:42;21.30;99.90
22145;DHT22;11238;48.730;11.566;2022-09-03T13:08:31;21.30;99.90
22145;DHT22;11238;48.730;11.566;2022-09-03T13:11:00;21.30;99.90
22145;DHT22;11238;48.730;11.566;2022-09-03T13:13:31;21.40;99.90
22145;DHT22;11238;48.730;11.566;2022-09-03T13:19:15;21.30;98.80
22145;DHT22;11238;48.730;11.566;2022-09-03T13:40:36;21.90;97.20
22145;DHT22;11238;48.730;11.566;2022-09-03T13:43:36;21.80;98.00
22145;DHT22;11238;48.730;11.566;2022-09-03T13:46:35;22.00;98.40
22145;DHT22;11238;48.730;11.566;2022-09-03T13:51:59;22.00;97.80
22145;DHT22;11238;48.730;11.566;2022-09-03T13:54:38;22.00;98.10
22145;DHT22;11238;48.730;11.566;2022-09-03T13:57:07;22.00;98.20
22145;DHT22;11238;48.730;11.566;2022-09-03T13:59:48;21.90;97.30
22145;DHT22;11238;48.730;11.566;2022-09-03T14:08:00;21.90;98.60
22145;DHT22;11238;48.730;11.566;2022-09-03T14:11:01;21.80;98.00
22145;DHT22;11238;48.730;11.566;2022-09-03T14:16:47;21.80;98.90
22145;DHT22;11238;48.730;11.566;2022-09-03T14:19:32;21.80;97.80
22145;DHT22;11238;48.730;11.566;2022-09-03T14:22:10;21.70;97.20
22145;DHT22;11238;48.730;11.566;2022-09-03T14:27:25;21.50;97.80
22145;DHT22;11238;48.730;11.566;2022-09-03T14:30:16;21.50;98.30
22145;DHT22;11238;48.730;11.566;2022-09-03T14:33:09;21.60;98.40
22145;DHT22;11238;48.730;11.566;2022-09-03T14:35:54;21.60;98.90
22145;DHT22;11238;48.730;11.566;2022-09-03T14:38:44;21.60;99.40
22145;DHT22;11238;48.730;11.566;2022-09-03T14:47:18;21.70;99.30
22145;DHT22;11238;48.730;11.566;2022-09-03T14:50:20;21.70;98.00
22145;DHT22;11238;48.730;11.566;2022-09-03T15:01:05;21.80;97.70
22145;DHT22;11238;48.730;11.566;2022-09-03T15:09:06;21.70;98.80
22145;DHT22;11238;48.730;11.566;2022-09-03T15:11:50;21.70;98.60
22145;DHT22;11238;48.730;11.566;2022-09-03T15:14:23;21.60;99.20
22145;DHT22;11238;48.730;11.566;2022-09-03T15:34:41;21.20;99.90
22145;DHT22;11238;48.730;11.566;2022-09-03T15:37:18;21.20;99.90
22145;DHT22;11238;48.730;11.566;2022-09-03T15:39:58;21.20;99.90
22145;DHT22;11238;48.730;11.566;2022-09-03T15:42:26;21.20;99.90
22145;DHT22;11238;48.730;11.566;2022-09-03T15:44:59;21.30;99.90
22145;DHT22;11238;48.730;11.566;2022-09-03T15:47:29;21.30;99.90
22145;DHT22;11238;48.730;11.566;2022-09-03T15:50:00;21.30;99.90
22145;DHT22;11238;48.730;11.566;2022-09-03T15:55:42;21.20;99.90
22145;DHT22;11238;48.730;11.566;2022-09-03T15:58:28;21.30;99.90
22145;DHT22;11238;48.730;11.566;2022-09-03T16:01:10;21.30;99.90
22145;DHT22;11238;48.730;11.566;2022-09-03T16:03:43;21.30;99.90
22145;DHT22;11238;48.730;11.566;2022-09-03T16:06:30;21.20;99.90
22145;DHT22;11238;48.730;11.566;2022-09-03T16:09:19;21.20;99.90
22145;DHT22;11238;48.730;11.566;2022-09-03T16:15:11;21.00;99.90
22145;DHT22;11238;48.730;11.566;2022-09-03T16:20:19;20.80;99.90
22145;DHT22;11238;48.730;11.566;2022-09-03T16:22:56;20.80;99.90
22145;DHT22;11238;48.730;11.566;2022-09-03T16:25:44;20.90;99.90
22145;DHT22;11238;48.730;11.566;2022-09-03T16:28:17;20.90;99.90
22145;DHT22;11238;48.730;11.566;2022-09-03T16:31:40;21.00;99.90
22145;DHT22;11238;48.730;11.566;2022-09-03T16:39:00;20.90;99.90
22145;DHT22;11238;48.730;11.566;2022-09-03T16:44:53;21.00;99.90
22145;DHT22;11238;48.730;11.566;2022-09-03T16:50:14;20.80;99.90
22145;DHT22;11238;48.730;11.566;2022-09-03T16:56:12;20.60;99.90
22145;DHT22;11238;48.730;11.566;2022-09-03T16:58:26;20.30;99.90
22145;DHT22;11238;48.730;11.566;2022-09-03T17:01:38;20.30;99.90
22145;DHT22;11238;48.730;11.566;2022-09-03T17:12:07;20.00;99.90
22145;DHT22;11238;48.730;11.566;2022-09-03T17:15:05;20.00;99.90
22145;DHT22;11238;48.730;11.566;2022-09-03T17:17:51;20.10;99.90
22145;DHT22;11238;48.730;11.566;2022-09-03T17:20:51;20.00;99.90
22145;DHT22;11238;48.730;11.566;2022-09-03T17:23:54;20.10;99.90
22145;DHT22;11238;48.730;11.566;2022-09-03T17:35:06;19.80;99.90
22145;DHT22;11238;48.730;11.566;2022-09-03T17:37:48;19.70;99.90
22145;DHT22;11238;48.730;11.566;2022-09-03T17:48:42;19.30;99.90
22145;DHT22;11238;48.730;11.566;2022-09-03T17:54:14;19.30;99.90
22145;DHT22;11238;48.730;11.566;2022-09-03T18:02:59;19.10;99.90
22145;DHT22;11238;48.730;11.566;2022-09-03T18:05:29;19.00;99.90
22145;DHT22;11238;48.730;11.566;2022-09-03T18:08:13;19.00;99.90
22145;DHT22;11238;48.730;11.566;2022-09-03T18:16:28;18.90;99.90
22145;DHT22;11238;48.730;11.566;2022-09-03T18:19:16;18.90;99.90
22145;DHT22;11238;48.730;11.566;2022-09-03T18:21:58;18.80;99.90
22145;DHT22;11238;48.730;11.566;2022-09-03T18:24:58;18.70;99.90
22145;DHT22;11238;48.730;11.566;2022-09-03T18:27:46;18.60;99.90
22145;DHT22;11238;48.730;11.566;2022-09-03T18:30:33;18.50;99.90
22145;DHT22;11238;48.730;11.566;2022-09-03T18:33:23;18.40;99.90
22145;DHT22;11238;48.730;11.566;2022-09-03T18:36:09;18.40;99.90
22145;DHT22;11238;48.730;11.566;2022-09-03T18:39:02;18.30;99.90
22145;DHT22;11238;48.730;11.566;2022-09-03T18:48:53;18.00;99.90
22145;DHT22;11238;48.730;11.566;2022-09-03T18:55:47;17.90;99.90
22145;DHT22;11238;48.730;11.566;2022-09-03T18:58:36;17.90;99.90
22145;DHT22;11238;48.730;11.566;2022-09-03T19:01:38;17.90;99.90
22145;DHT22;11238;48.730;11.566;2022-09-03T19:13:36;17.50;99.90
22145;DHT22;11238;48.730;11.566;2022-09-03T19:22:34;17.40;99.90
22145;DHT22;11238;48.730;11.566;2022-09-03T19:25:19;17.30;99.90
22145;DHT22;11238;48.730;11.566;2022-09-03T19:28:23;17.20;99.90
22145;DHT22;11238;48.730;11.566;2022-09-03T19:31:44;17.20;99.90
22145;DHT22;11238;48.730;11.566;2022-09-03T19:34:29;17.20;99.90
22145;DHT22;11238;48.730;11.566;2022-09-03T19:37:19;17.10;99.90
22145;DHT22;11238;48.730;11.566;2022-09-03T19:40:26;17.10;99.90
22145;DHT22;11238;48.730;11.566;2022-09-03T19:46:50;17.00;99.90
22145;DHT22;11238;48.730;11.566;2022-09-03T19:49:49;17.00;99.90
22145;DHT22;11238;48.730;11.566;2022-09-03T19:52:44;17.00;99.90
22145;DHT22;11238;48.730;11.566;2022-09-03T19:55:36;17.00;99.90
22145;DHT22;11238;48.730;11.566;2022-09-03T19:58:24;16.90;99.90
22145;DHT22;11238;48.730;11.566;2022-09-03T20:01:11;16.90;99.90
22145;DHT22;11238;48.730;11.566;2022-09-03T20:03:59;16.90;99.90
22145;DHT22;11238;48.730;11.566;2022-09-03T20:06:45;16.90;99.90
22145;DHT22;11238;48.730;11.566;2022-09-03T20:09:34;16.80;99.90
22145;DHT22;11238;48.730;11.566;2022-09-03T20:12:23;16.80;99.90
22145;DHT22;11238;48.730;11.566;2022-09-03T20:14:49;16.90;99.90
22145;DHT22;11238;48.730;11.566;2022-09-03T20:36:46;16.50;99.90
22145;DHT22;11238;48.730;11.566;2022-09-03T20:44:50;16.40;99.90
22145;DHT22;11238;48.730;11.566;2022-09-03T20:55:30;16.20;99.90
22145;DHT22;11238;48.730;11.566;2022-09-03T21:00:43;16.20;99.90